KNOW

Port Angeles CGas Airport

Port Angeles, Washington, USA
METAR KNOW 162130Z AUTO 28005KT 7SM RA BKN065 OVC075 09/09 A2957 RMK AO2 P0001 T00920088
Observed Flight Rules
Dec-16 @ 21:30 UTC (32 minutes ago) Visual Flight Rules
Wind Visibility Clouds Conditions
280° at 5 knots 7 miles
  • Broken at 6,500' AGL
  • Overcast at 7,500' AGL
  • Rain
Temperatures Readings Precipitation
Current 9°C / 48°F
Dewpoint 9°C / 48°F
Humidity 100%
Altimeter 29.57" Hg
Pressure 1001 hPa
Elevation 4
Current Rain 0.01
METAR KNOW 162130Z AUTO 28005KT 7SM RA BKN065 OVC075 09/09 A2957 RMK AO2 P0001 T00920088
Observed Flight Rules
Dec-16 @ 21:30 UTC
(32 minutes ago)
VFR
Wind Visibility
280° at 5 knots 7 miles
Clouds
  • Broken at 6,500' AGL
  • Overcast at 7,500' AGL
Conditions
  • Rain
Temperature Dewpoint
9°C / 48°F 9°C / 48°F
Humidity Altimeter Pressure
100% 29.57" Hg 1001 hPa
Current Rain
0.01